»·PEaware :: AAL424 KSAC-KOTH

AAL424 :: KSAC-KOTH

FLIGHT INFORMATION

Flight Status: Arrived
Operator:
American Airlines
More flights by this operator :: More flights under this callsign
Pilot: Ben H. (9170)
Aircraft: BOEING 737-300
(B733)
More flights by this aircraft type
Origin: KSAC Sacramento Executive
United States
Destination: KOTH North Bend Mun
United States
More flights between these airports :: More routes between these airports
Route: +SAC J126 RBL OED
File this flight plan on PilotEdge
Remarks: RMK / SIMBRIEF
Altitude:
(Current/Filed)
36,000ft
Speed:
(Current/Filed)
438kts
Departed: 18-Feb-19 05:30 PM
Arrived: 18-Feb-19 06:34 PM
Distance/Time
Traveled:
320nm/1:03
Distance/Time
To Go:
Arrived

Flight Plot

Page will automatically refresh every two minutes.

Flight plan parsing failed; only flown route is shown


Map Options




Map Legend


Flown Route
Filed Route
Departure Airport
Arrival Airport
Navaid (VOR, NDB)
Fix

Horizontal Profiles

Position Reports

Time Latitude Longitude Heading Altitude Ground
Speed
18-Feb-19 16:44 38.514036 -121.497695 214 26ft 0kts
18-Feb-19 16:45 38.514036 -121.497695 214 26ft 0kts
18-Feb-19 16:46 38.514036 -121.497695 214 26ft 0kts
18-Feb-19 16:47 38.514036 -121.497695 214 26ft 0kts
18-Feb-19 16:48 38.514036 -121.497695 214 26ft 0kts
18-Feb-19 16:49 38.514036 -121.497695 214 26ft 0kts
18-Feb-19 16:50 38.514036 -121.497695 214 26ft 0kts
18-Feb-19 16:51 38.514036 -121.497695 214 26ft 0kts
18-Feb-19 16:52 38.514036 -121.497695 214 26ft 0kts
18-Feb-19 16:53 38.514036 -121.497695 214 26ft 0kts
18-Feb-19 16:54 38.514036 -121.497695 214 26ft 0kts
18-Feb-19 16:55 38.514036 -121.497695 214 26ft 0kts
18-Feb-19 16:56 38.514036 -121.497695 214 26ft 0kts
18-Feb-19 16:57 38.514036 -121.497695 214 26ft 0kts
18-Feb-19 16:58 38.514036 -121.497695 214 26ft 0kts
18-Feb-19 16:59 38.514036 -121.497695 214 26ft 0kts
18-Feb-19 17:00 38.514036 -121.497695 214 26ft 0kts
18-Feb-19 17:01 38.514036 -121.497695 214 26ft 0kts
18-Feb-19 17:02 38.514036 -121.497695 214 26ft 0kts
18-Feb-19 17:03 38.514036 -121.497695 214 26ft 0kts
18-Feb-19 17:04 38.514036 -121.497695 214 26ft 0kts
18-Feb-19 17:05 38.514036 -121.497695 214 26ft 0kts
18-Feb-19 17:06 38.514036 -121.497695 214 26ft 0kts
18-Feb-19 17:07 38.514036 -121.497695 214 26ft 0kts
18-Feb-19 17:08 38.514036 -121.497695 214 26ft 0kts
18-Feb-19 17:09 38.514036 -121.497695 214 26ft 0kts
18-Feb-19 17:10 38.514036 -121.497695 214 26ft 0kts
18-Feb-19 17:11 38.514036 -121.497695 214 26ft 0kts
18-Feb-19 17:12 38.514036 -121.497695 214 26ft 0kts
18-Feb-19 17:13 38.514036 -121.497695 214 26ft 0kts
18-Feb-19 17:14 38.514036 -121.497695 214 26ft 0kts
18-Feb-19 17:15 38.514036 -121.497695 214 26ft 0kts
18-Feb-19 17:16 38.514036 -121.497695 214 26ft 0kts
18-Feb-19 17:17 38.514036 -121.497695 214 26ft 0kts
18-Feb-19 17:18 38.514036 -121.497695 214 26ft 0kts
18-Feb-19 17:19 38.514036 -121.497695 214 26ft 0kts
18-Feb-19 17:20 38.514036 -121.497695 214 26ft 0kts
18-Feb-19 17:21 38.514036 -121.497695 214 26ft 0kts
18-Feb-19 17:22 38.513455 -121.497134 111 26ft 6kts
18-Feb-19 17:23 38.511842 -121.496880 213 25ft 12kts
18-Feb-19 17:24 38.508328 -121.499802 213 25ft 17kts
18-Feb-19 17:25 38.506360 -121.501135 169 25ft 0kts
18-Feb-19 17:26 38.506360 -121.501135 169 25ft 0kts
18-Feb-19 17:27 38.506360 -121.501135 169 25ft 0kts
18-Feb-19 17:28 38.505606 -121.500384 30 25ft 0kts
18-Feb-19 17:29 38.514890 -121.492689 33 30ft 148kts
18-Feb-19 17:30 38.559373 -121.486060 353 1408ft 169kts
18-Feb-19 17:31 38.614558 -121.493942 353 2591ft 215kts
18-Feb-19 17:32 38.673691 -121.500712 353 5161ft 215kts
18-Feb-19 17:33 38.735118 -121.504426 353 7383ft 228kts
18-Feb-19 17:34 38.794827 -121.531636 329 9088ft 252kts
18-Feb-19 17:35 38.861805 -121.569385 331 10990ft 283kts
18-Feb-19 17:36 38.939370 -121.610754 332 12978ft 310kts
18-Feb-19 17:37 39.020271 -121.653638 332 15420ft 319kts
18-Feb-19 17:38 39.100068 -121.696249 332 17614ft 328kts
18-Feb-19 17:39 39.182226 -121.739841 331 19577ft 338kts
18-Feb-19 17:40 39.270906 -121.787151 331 21450ft 347kts
18-Feb-19 17:41 39.362125 -121.835970 330 23137ft 357kts
18-Feb-19 17:42 39.455151 -121.885891 330 24711ft 364kts
18-Feb-19 17:43 39.549990 -121.936953 330 26031ft 376kts
18-Feb-19 17:44 39.640130 -121.985624 330 26987ft 392kts
18-Feb-19 17:45 39.740486 -122.039918 330 28700ft 386kts
18-Feb-19 17:46 39.839485 -122.093711 329 29841ft 385kts
18-Feb-19 17:47 39.939583 -122.148315 330 29810ft 404kts
18-Feb-19 17:48 40.044691 -122.205666 329 31300ft 399kts
18-Feb-19 17:49 40.151248 -122.251635 341 32045ft 421kts
18-Feb-19 17:50 40.266719 -122.282268 340 32892ft 426kts
18-Feb-19 17:51 40.382154 -122.313994 340 34040ft 420kts
18-Feb-19 17:52 40.495857 -122.345419 340 34858ft 419kts
18-Feb-19 17:53 40.610804 -122.377281 340 35582ft 419kts
18-Feb-19 17:55 40.724422 -122.408907 340 36224ft 418kts
18-Feb-19 17:56 40.838386 -122.440744 340 36278ft 423kts
18-Feb-19 17:57 40.954857 -122.473367 340 36300ft 432kts
18-Feb-19 17:58 41.073136 -122.506604 342 36322ft 432kts
18-Feb-19 17:59 41.179199 -122.536405 343 36302ft 428kts
18-Feb-19 18:00 41.295680 -122.569381 343 36296ft 429kts
18-Feb-19 18:01 41.413328 -122.602690 343 36290ft 430kts
18-Feb-19 18:02 41.530637 -122.636184 343 36295ft 430kts
18-Feb-19 18:03 41.646708 -122.669732 342 36295ft 429kts
18-Feb-19 18:04 41.763773 -122.703515 342 36295ft 429kts
18-Feb-19 18:05 41.881001 -122.737412 342 36295ft 429kts
18-Feb-19 18:06 41.997911 -122.771343 342 36300ft 429kts
18-Feb-19 18:07 42.113734 -122.805078 342 36284ft 430kts
18-Feb-19 18:08 42.227421 -122.838196 342 35715ft 426kts
18-Feb-19 18:09 42.345759 -122.872957 342 32118ft 439kts
18-Feb-19 18:10 42.465459 -122.908281 341 28832ft 442kts
18-Feb-19 18:11 42.552879 -123.007521 309 26349ft 399kts
18-Feb-19 18:12 42.625048 -123.115795 304 24198ft 375kts
18-Feb-19 18:13 42.690964 -123.228043 304 22059ft 366kts
18-Feb-19 18:13 42.736672 -123.321156 294 20324ft 348kts
18-Feb-19 18:15 42.789548 -123.454009 294 17807ft 335kts
18-Feb-19 18:16 42.833653 -123.564265 294 15694ft 325kts
18-Feb-19 18:17 42.876565 -123.671291 294 13616ft 316kts
18-Feb-19 18:17 42.911733 -123.758647 294 12008ft 308kts
18-Feb-19 18:18 42.952192 -123.860103 294 10220ft 293kts
18-Feb-19 18:20 42.995364 -123.975418 294 7922ft 292kts
18-Feb-19 18:20 43.026530 -124.052927 294 7417ft 260kts
18-Feb-19 18:21 43.062862 -124.136308 315 6182ft 253kts
18-Feb-19 18:22 43.112679 -124.181743 325 5065ft 250kts
18-Feb-19 18:23 43.166951 -124.230865 325 4311ft 220kts
18-Feb-19 18:24 43.216727 -124.276783 325 3084ft 211kts
18-Feb-19 18:25 43.233759 -124.339455 235 2936ft 201kts
18-Feb-19 18:26 43.203749 -124.404411 240 2913ft 201kts
18-Feb-19 18:27 43.223354 -124.472130 341 2903ft 211kts
18-Feb-19 18:28 43.276660 -124.445698 31 2922ft 208kts
18-Feb-19 18:29 43.326653 -124.406818 31 2589ft 195kts
18-Feb-19 18:30 43.369776 -124.370884 57 1751ft 178kts
18-Feb-19 18:31 43.392268 -124.315743 63 936ft 133kts
18-Feb-19 18:32 43.410841 -124.270120 63 285ft 137kts
18-Feb-19 18:33 43.420989 -124.244993 61 11ft 21kts
18-Feb-19 18:34 43.420066 -124.244519 242 11ft 11kts
18-Feb-19 18:35 43.419939 -124.244840 239 11ft 1kts
18-Feb-19 18:36 43.418648 -124.247987 240 11ft 14kts
18-Feb-19 18:37 43.416909 -124.249048 187 11ft 0kts
18-Feb-19 18:38 43.416908 -124.249048 185 11ft 0kts
18-Feb-19 18:39 43.416908 -124.249048 185 11ft 0kts
18-Feb-19 18:40 43.416908 -124.249048 185 11ft 0kts
18-Feb-19 18:41 43.416908 -124.249048 185 11ft 0kts
18-Feb-19 18:42 43.416908 -124.249048 185 11ft 0kts
18-Feb-19 18:43 43.416908 -124.249048 185 11ft 0kts

Navigation Log

Ident Type
Flight plan parsing failed, navigation log unavailable